sensor_id;sensor_type;location;lat;lon;timestamp;P1;durP1;ratioP1;P2;durP2;ratioP2
31782;SDS011;18351;47.560;9.708;2024-02-21T00:00:13;6.07;;;3.17;;
31782;SDS011;18351;47.560;9.708;2024-02-21T00:02:39;5.28;;;3.13;;
31782;SDS011;18351;47.560;9.708;2024-02-21T00:05:05;11.23;;;2.80;;
31782;SDS011;18351;47.560;9.708;2024-02-21T00:07:31;4.05;;;2.80;;
31782;SDS011;18351;47.560;9.708;2024-02-21T00:09:56;8.50;;;2.95;;
31782;SDS011;18351;47.560;9.708;2024-02-21T00:12:22;6.50;;;3.25;;
31782;SDS011;18351;47.560;9.708;2024-02-21T00:14:47;4.40;;;2.80;;
31782;SDS011;18351;47.560;9.708;2024-02-21T00:17:13;5.00;;;2.80;;
31782;SDS011;18351;47.560;9.708;2024-02-21T00:19:38;4.20;;;3.08;;
31782;SDS011;18351;47.560;9.708;2024-02-21T00:22:04;5.00;;;2.90;;
31782;SDS011;18351;47.560;9.708;2024-02-21T00:24:29;8.15;;;3.05;;
31782;SDS011;18351;47.560;9.708;2024-02-21T00:26:55;4.55;;;3.13;;
31782;SDS011;18351;47.560;9.708;2024-02-21T00:29:20;5.80;;;3.40;;
31782;SDS011;18351;47.560;9.708;2024-02-21T00:31:46;5.00;;;2.70;;
31782;SDS011;18351;47.560;9.708;2024-02-21T00:34:12;4.07;;;2.42;;
31782;SDS011;18351;47.560;9.708;2024-02-21T00:36:38;4.15;;;2.47;;
31782;SDS011;18351;47.560;9.708;2024-02-21T00:39:04;3.75;;;2.90;;
31782;SDS011;18351;47.560;9.708;2024-02-21T00:41:29;4.63;;;2.83;;
31782;SDS011;18351;47.560;9.708;2024-02-21T00:43:55;3.22;;;2.58;;
31782;SDS011;18351;47.560;9.708;2024-02-21T00:46:20;6.75;;;3.72;;
31782;SDS011;18351;47.560;9.708;2024-02-21T00:48:46;4.50;;;2.63;;
31782;SDS011;18351;47.560;9.708;2024-02-21T00:51:12;5.75;;;2.72;;
31782;SDS011;18351;47.560;9.708;2024-02-21T00:53:38;6.68;;;2.70;;
31782;SDS011;18351;47.560;9.708;2024-02-21T00:56:05;4.18;;;2.80;;
31782;SDS011;18351;47.560;9.708;2024-02-21T00:58:30;3.72;;;2.53;;
31782;SDS011;18351;47.560;9.708;2024-02-21T01:00:56;5.32;;;2.28;;
31782;SDS011;18351;47.560;9.708;2024-02-21T01:03:21;7.50;;;2.63;;
31782;SDS011;18351;47.560;9.708;2024-02-21T01:05:47;5.57;;;2.53;;
31782;SDS011;18351;47.560;9.708;2024-02-21T01:08:12;4.57;;;2.83;;
31782;SDS011;18351;47.560;9.708;2024-02-21T01:10:38;6.38;;;3.10;;
31782;SDS011;18351;47.560;9.708;2024-02-21T01:13:03;4.57;;;2.92;;
31782;SDS011;18351;47.560;9.708;2024-02-21T01:15:29;2.75;;;2.40;;
31782;SDS011;18351;47.560;9.708;2024-02-21T01:17:55;4.90;;;2.63;;
31782;SDS011;18351;47.560;9.708;2024-02-21T01:20:20;5.53;;;2.65;;
31782;SDS011;18351;47.560;9.708;2024-02-21T01:22:46;3.75;;;2.50;;
31782;SDS011;18351;47.560;9.708;2024-02-21T01:25:12;6.32;;;2.50;;
31782;SDS011;18351;47.560;9.708;2024-02-21T01:27:37;8.48;;;2.55;;
31782;SDS011;18351;47.560;9.708;2024-02-21T01:30:03;3.55;;;2.60;;
31782;SDS011;18351;47.560;9.708;2024-02-21T01:32:30;4.57;;;2.50;;
31782;SDS011;18351;47.560;9.708;2024-02-21T01:34:56;2.97;;;2.60;;
31782;SDS011;18351;47.560;9.708;2024-02-21T01:37:21;7.15;;;3.25;;
31782;SDS011;18351;47.560;9.708;2024-02-21T01:39:47;3.97;;;2.55;;
31782;SDS011;18351;47.560;9.708;2024-02-21T01:42:14;5.15;;;2.58;;
31782;SDS011;18351;47.560;9.708;2024-02-21T01:44:39;4.03;;;2.65;;
31782;SDS011;18351;47.560;9.708;2024-02-21T01:47:06;4.50;;;2.40;;
31782;SDS011;18351;47.560;9.708;2024-02-21T01:49:32;3.60;;;2.67;;
31782;SDS011;18351;47.560;9.708;2024-02-21T01:51:58;3.80;;;2.88;;
31782;SDS011;18351;47.560;9.708;2024-02-21T01:54:24;3.17;;;2.25;;
31782;SDS011;18351;47.560;9.708;2024-02-21T01:56:53;3.55;;;2.40;;
31782;SDS011;18351;47.560;9.708;2024-02-21T01:59:19;5.72;;;2.30;;
31782;SDS011;18351;47.560;9.708;2024-02-21T02:01:46;3.47;;;2.40;;
31782;SDS011;18351;47.560;9.708;2024-02-21T02:04:13;4.00;;;2.65;;
31782;SDS011;18351;47.560;9.708;2024-02-21T02:06:39;5.20;;;2.47;;
31782;SDS011;18351;47.560;9.708;2024-02-21T02:09:06;5.65;;;2.45;;
31782;SDS011;18351;47.560;9.708;2024-02-21T02:11:32;8.93;;;2.83;;
31782;SDS011;18351;47.560;9.708;2024-02-21T02:13:58;3.95;;;2.90;;
31782;SDS011;18351;47.560;9.708;2024-02-21T02:16:23;4.82;;;2.50;;
31782;SDS011;18351;47.560;9.708;2024-02-21T02:18:49;6.28;;;3.10;;
31782;SDS011;18351;47.560;9.708;2024-02-21T02:21:23;4.15;;;2.47;;
31782;SDS011;18351;47.560;9.708;2024-02-21T02:23:59;5.05;;;2.20;;
31782;SDS011;18351;47.560;9.708;2024-02-21T02:26:25;4.25;;;2.30;;
31782;SDS011;18351;47.560;9.708;2024-02-21T02:28:52;4.43;;;2.30;;
31782;SDS011;18351;47.560;9.708;2024-02-21T02:31:17;3.65;;;2.40;;
31782;SDS011;18351;47.560;9.708;2024-02-21T02:33:43;5.85;;;2.45;;
31782;SDS011;18351;47.560;9.708;2024-02-21T02:36:09;6.10;;;2.13;;
31782;SDS011;18351;47.560;9.708;2024-02-21T02:38:35;2.58;;;2.25;;
31782;SDS011;18351;47.560;9.708;2024-02-21T02:41:00;2.85;;;1.95;;
31782;SDS011;18351;47.560;9.708;2024-02-21T02:43:26;4.03;;;2.22;;
31782;SDS011;18351;47.560;9.708;2024-02-21T02:45:51;2.97;;;2.40;;
31782;SDS011;18351;47.560;9.708;2024-02-21T02:48:17;2.58;;;1.77;;
31782;SDS011;18351;47.560;9.708;2024-02-21T02:50:43;2.60;;;1.90;;
31782;SDS011;18351;47.560;9.708;2024-02-21T02:53:08;2.85;;;2.10;;
31782;SDS011;18351;47.560;9.708;2024-02-21T02:55:34;2.72;;;2.20;;
31782;SDS011;18351;47.560;9.708;2024-02-21T02:58:00;1.98;;;1.70;;
31782;SDS011;18351;47.560;9.708;2024-02-21T03:00:26;6.55;;;2.28;;
31782;SDS011;18351;47.560;9.708;2024-02-21T03:02:52;2.65;;;1.95;;
31782;SDS011;18351;47.560;9.708;2024-02-21T03:05:21;3.50;;;1.83;;
31782;SDS011;18351;47.560;9.708;2024-02-21T03:07:47;2.22;;;2.00;;
31782;SDS011;18351;47.560;9.708;2024-02-21T03:10:14;6.85;;;2.42;;
31782;SDS011;18351;47.560;9.708;2024-02-21T03:12:41;2.55;;;1.98;;
31782;SDS011;18351;47.560;9.708;2024-02-21T03:15:07;2.20;;;1.83;;
31782;SDS011;18351;47.560;9.708;2024-02-21T03:17:33;2.50;;;1.85;;
31782;SDS011;18351;47.560;9.708;2024-02-21T03:20:02;3.63;;;2.53;;
31782;SDS011;18351;47.560;9.708;2024-02-21T03:22:34;4.63;;;2.13;;
31782;SDS011;18351;47.560;9.708;2024-02-21T03:25:00;2.92;;;2.05;;
31782;SDS011;18351;47.560;9.708;2024-02-21T03:27:26;3.65;;;1.88;;
31782;SDS011;18351;47.560;9.708;2024-02-21T03:29:51;7.00;;;2.00;;
31782;SDS011;18351;47.560;9.708;2024-02-21T03:32:17;4.45;;;2.30;;
31782;SDS011;18351;47.560;9.708;2024-02-21T03:34:42;4.47;;;1.70;;
31782;SDS011;18351;47.560;9.708;2024-02-21T03:37:08;3.63;;;2.05;;
31782;SDS011;18351;47.560;9.708;2024-02-21T03:39:33;2.83;;;2.35;;
31782;SDS011;18351;47.560;9.708;2024-02-21T03:41:59;2.75;;;1.70;;
31782;SDS011;18351;47.560;9.708;2024-02-21T03:44:29;3.20;;;1.90;;
31782;SDS011;18351;47.560;9.708;2024-02-21T03:46:56;1.98;;;1.65;;
31782;SDS011;18351;47.560;9.708;2024-02-21T03:49:21;2.92;;;1.95;;
31782;SDS011;18351;47.560;9.708;2024-02-21T03:51:47;3.95;;;1.85;;
31782;SDS011;18351;47.560;9.708;2024-02-21T03:54:13;1.70;;;1.60;;
31782;SDS011;18351;47.560;9.708;2024-02-21T03:56:38;3.03;;;1.85;;
31782;SDS011;18351;47.560;9.708;2024-02-21T03:59:05;1.83;;;1.55;;
31782;SDS011;18351;47.560;9.708;2024-02-21T04:01:31;2.88;;;1.45;;
31782;SDS011;18351;47.560;9.708;2024-02-21T04:03:57;3.88;;;1.48;;
31782;SDS011;18351;47.560;9.708;2024-02-21T04:06:22;1.92;;;1.35;;
31782;SDS011;18351;47.560;9.708;2024-02-21T04:08:48;1.50;;;1.40;;
31782;SDS011;18351;47.560;9.708;2024-02-21T04:11:13;1.40;;;1.30;;
31782;SDS011;18351;47.560;9.708;2024-02-21T04:13:39;2.67;;;1.45;;
31782;SDS011;18351;47.560;9.708;2024-02-21T04:16:04;2.42;;;1.48;;
31782;SDS011;18351;47.560;9.708;2024-02-21T04:18:31;1.35;;;1.25;;
31782;SDS011;18351;47.560;9.708;2024-02-21T04:20:56;1.45;;;1.35;;
31782;SDS011;18351;47.560;9.708;2024-02-21T04:23:22;1.55;;;1.40;;
31782;SDS011;18351;47.560;9.708;2024-02-21T04:25:47;1.60;;;1.50;;
31782;SDS011;18351;47.560;9.708;2024-02-21T04:28:13;5.22;;;1.67;;
31782;SDS011;18351;47.560;9.708;2024-02-21T04:30:38;2.25;;;1.58;;
31782;SDS011;18351;47.560;9.708;2024-02-21T04:33:04;2.25;;;1.40;;
31782;SDS011;18351;47.560;9.708;2024-02-21T04:35:29;1.30;;;1.20;;
31782;SDS011;18351;47.560;9.708;2024-02-21T04:37:55;1.30;;;1.20;;
31782;SDS011;18351;47.560;9.708;2024-02-21T04:40:20;1.48;;;1.38;;
31782;SDS011;18351;47.560;9.708;2024-02-21T04:42:46;1.50;;;1.30;;
31782;SDS011;18351;47.560;9.708;2024-02-21T04:45:11;2.38;;;1.35;;
31782;SDS011;18351;47.560;9.708;2024-02-21T04:47:37;2.70;;;1.40;;
31782;SDS011;18351;47.560;9.708;2024-02-21T04:50:02;3.00;;;1.40;;
31782;SDS011;18351;47.560;9.708;2024-02-21T04:52:28;1.48;;;1.38;;
31782;SDS011;18351;47.560;9.708;2024-02-21T04:54:54;1.63;;;1.40;;
31782;SDS011;18351;47.560;9.708;2024-02-21T04:57:20;1.92;;;1.20;;
31782;SDS011;18351;47.560;9.708;2024-02-21T04:59:46;2.58;;;1.30;;
31782;SDS011;18351;47.560;9.708;2024-02-21T05:02:15;1.40;;;1.30;;
31782;SDS011;18351;47.560;9.708;2024-02-21T05:04:41;1.65;;;1.50;;
31782;SDS011;18351;47.560;9.708;2024-02-21T05:07:07;1.40;;;1.20;;
31782;SDS011;18351;47.560;9.708;2024-02-21T05:09:33;1.45;;;1.35;;
31782;SDS011;18351;47.560;9.708;2024-02-21T05:11:58;1.95;;;1.30;;
31782;SDS011;18351;47.560;9.708;2024-02-21T05:14:25;4.05;;;1.33;;
31782;SDS011;18351;47.560;9.708;2024-02-21T05:16:51;3.95;;;1.50;;
31782;SDS011;18351;47.560;9.708;2024-02-21T05:19:17;1.90;;;1.33;;
31782;SDS011;18351;47.560;9.708;2024-02-21T05:21:43;1.60;;;1.27;;
31782;SDS011;18351;47.560;9.708;2024-02-21T05:24:08;3.67;;;1.40;;
31782;SDS011;18351;47.560;9.708;2024-02-21T05:26:34;2.35;;;1.50;;
31782;SDS011;18351;47.560;9.708;2024-02-21T05:28:59;1.50;;;1.30;;
31782;SDS011;18351;47.560;9.708;2024-02-21T05:31:25;2.42;;;1.23;;
31782;SDS011;18351;47.560;9.708;2024-02-21T05:33:50;1.33;;;1.23;;
31782;SDS011;18351;47.560;9.708;2024-02-21T05:36:16;1.25;;;1.15;;
31782;SDS011;18351;47.560;9.708;2024-02-21T05:38:41;2.47;;;1.50;;
31782;SDS011;18351;47.560;9.708;2024-02-21T05:41:07;2.50;;;1.40;;
31782;SDS011;18351;47.560;9.708;2024-02-21T05:43:32;6.45;;;3.70;;
31782;SDS011;18351;47.560;9.708;2024-02-21T05:45:58;4.28;;;2.60;;
31782;SDS011;18351;47.560;9.708;2024-02-21T05:48:24;3.97;;;1.58;;
31782;SDS011;18351;47.560;9.708;2024-02-21T05:50:49;1.63;;;1.40;;
31782;SDS011;18351;47.560;9.708;2024-02-21T05:53:15;2.05;;;1.42;;
31782;SDS011;18351;47.560;9.708;2024-02-21T05:55:41;1.60;;;1.50;;
31782;SDS011;18351;47.560;9.708;2024-02-21T05:58:06;2.63;;;1.80;;
31782;SDS011;18351;47.560;9.708;2024-02-21T06:00:35;1.85;;;1.67;;
31782;SDS011;18351;47.560;9.708;2024-02-21T06:03:00;1.80;;;1.60;;
31782;SDS011;18351;47.560;9.708;2024-02-21T06:05:27;1.60;;;1.45;;
31782;SDS011;18351;47.560;9.708;2024-02-21T06:07:53;2.70;;;1.58;;
31782;SDS011;18351;47.560;9.708;2024-02-21T06:10:18;7.63;;;1.48;;
31782;SDS011;18351;47.560;9.708;2024-02-21T06:12:44;2.63;;;1.45;;
31782;SDS011;18351;47.560;9.708;2024-02-21T06:15:09;2.50;;;1.30;;
31782;SDS011;18351;47.560;9.708;2024-02-21T06:17:35;2.00;;;1.42;;
31782;SDS011;18351;47.560;9.708;2024-02-21T06:20:00;3.03;;;1.17;;
31782;SDS011;18351;47.560;9.708;2024-02-21T06:22:26;1.92;;;1.65;;
31782;SDS011;18351;47.560;9.708;2024-02-21T06:24:51;2.58;;;1.40;;
31782;SDS011;18351;47.560;9.708;2024-02-21T06:27:19;2.13;;;1.55;;
31782;SDS011;18351;47.560;9.708;2024-02-21T06:29:44;1.88;;;1.25;;
31782;SDS011;18351;47.560;9.708;2024-02-21T06:32:10;1.90;;;1.35;;
31782;SDS011;18351;47.560;9.708;2024-02-21T06:34:35;6.82;;;2.80;;
31782;SDS011;18351;47.560;9.708;2024-02-21T06:37:01;1.63;;;1.48;;
31782;SDS011;18351;47.560;9.708;2024-02-21T06:39:26;2.35;;;1.10;;
31782;SDS011;18351;47.560;9.708;2024-02-21T06:41:53;1.48;;;1.25;;
31782;SDS011;18351;47.560;9.708;2024-02-21T06:44:19;2.10;;;1.30;;
31782;SDS011;18351;47.560;9.708;2024-02-21T06:46:46;2.25;;;1.20;;
31782;SDS011;18351;47.560;9.708;2024-02-21T06:49:11;4.38;;;1.75;;
31782;SDS011;18351;47.560;9.708;2024-02-21T06:51:41;2.47;;;1.70;;
31782;SDS011;18351;47.560;9.708;2024-02-21T06:54:08;6.10;;;2.00;;
31782;SDS011;18351;47.560;9.708;2024-02-21T06:56:34;4.82;;;1.20;;
31782;SDS011;18351;47.560;9.708;2024-02-21T06:59:00;1.48;;;1.20;;
31782;SDS011;18351;47.560;9.708;2024-02-21T07:01:26;2.95;;;1.20;;
31782;SDS011;18351;47.560;9.708;2024-02-21T07:03:52;2.75;;;1.25;;
31782;SDS011;18351;47.560;9.708;2024-02-21T07:06:17;1.67;;;1.30;;
31782;SDS011;18351;47.560;9.708;2024-02-21T07:08:43;1.88;;;1.08;;
31782;SDS011;18351;47.560;9.708;2024-02-21T07:11:08;2.33;;;1.15;;
31782;SDS011;18351;47.560;9.708;2024-02-21T07:13:34;2.42;;;1.30;;
31782;SDS011;18351;47.560;9.708;2024-02-21T07:15:59;1.92;;;1.10;;
31782;SDS011;18351;47.560;9.708;2024-02-21T07:18:25;4.18;;;1.15;;
31782;SDS011;18351;47.560;9.708;2024-02-21T07:20:51;1.92;;;1.30;;
31782;SDS011;18351;47.560;9.708;2024-02-21T07:23:17;1.20;;;1.10;;
31782;SDS011;18351;47.560;9.708;2024-02-21T07:25:43;2.63;;;1.30;;
31782;SDS011;18351;47.560;9.708;2024-02-21T07:28:09;1.38;;;1.10;;
31782;SDS011;18351;47.560;9.708;2024-02-21T07:30:34;3.50;;;1.50;;
31782;SDS011;18351;47.560;9.708;2024-02-21T07:33:00;1.50;;;1.30;;
31782;SDS011;18351;47.560;9.708;2024-02-21T07:35:26;2.55;;;1.30;;
31782;SDS011;18351;47.560;9.708;2024-02-21T07:37:51;2.45;;;1.35;;
31782;SDS011;18351;47.560;9.708;2024-02-21T07:40:17;2.20;;;1.40;;
31782;SDS011;18351;47.560;9.708;2024-02-21T07:42:43;2.92;;;1.38;;
31782;SDS011;18351;47.560;9.708;2024-02-21T07:45:09;3.03;;;1.48;;
31782;SDS011;18351;47.560;9.708;2024-02-21T07:47:35;2.60;;;1.67;;
31782;SDS011;18351;47.560;9.708;2024-02-21T07:50:02;1.85;;;1.20;;
31782;SDS011;18351;47.560;9.708;2024-02-21T07:52:28;1.30;;;1.20;;
31782;SDS011;18351;47.560;9.708;2024-02-21T07:54:53;1.55;;;1.40;;
31782;SDS011;18351;47.560;9.708;2024-02-21T07:57:19;3.85;;;1.63;;
31782;SDS011;18351;47.560;9.708;2024-02-21T07:59:44;3.55;;;1.58;;
31782;SDS011;18351;47.560;9.708;2024-02-21T08:02:12;1.85;;;1.42;;
31782;SDS011;18351;47.560;9.708;2024-02-21T08:04:40;1.45;;;1.30;;
31782;SDS011;18351;47.560;9.708;2024-02-21T08:07:06;1.80;;;1.70;;
31782;SDS011;18351;47.560;9.708;2024-02-21T08:09:32;3.15;;;1.60;;
31782;SDS011;18351;47.560;9.708;2024-02-21T08:11:58;2.25;;;1.40;;
31782;SDS011;18351;47.560;9.708;2024-02-21T08:14:23;2.17;;;1.23;;
31782;SDS011;18351;47.560;9.708;2024-02-21T08:16:50;1.90;;;1.25;;
31782;SDS011;18351;47.560;9.708;2024-02-21T08:19:18;3.63;;;1.10;;
31782;SDS011;18351;47.560;9.708;2024-02-21T08:21:44;3.58;;;1.20;;
31782;SDS011;18351;47.560;9.708;2024-02-21T08:24:12;1.83;;;1.20;;
31782;SDS011;18351;47.560;9.708;2024-02-21T08:26:40;1.30;;;1.20;;
31782;SDS011;18351;47.560;9.708;2024-02-21T08:29:06;1.13;;;1.02;;
31782;SDS011;18351;47.560;9.708;2024-02-21T08:31:31;3.55;;;1.40;;
31782;SDS011;18351;47.560;9.708;2024-02-21T08:33:57;2.22;;;1.80;;
31782;SDS011;18351;47.560;9.708;2024-02-21T08:36:27;1.33;;;1.20;;
31782;SDS011;18351;47.560;9.708;2024-02-21T08:38:54;2.50;;;1.40;;
31782;SDS011;18351;47.560;9.708;2024-02-21T08:41:20;2.50;;;1.13;;
31782;SDS011;18351;47.560;9.708;2024-02-21T08:43:48;2.33;;;1.50;;
31782;SDS011;18351;47.560;9.708;2024-02-21T08:46:14;2.40;;;1.40;;
31782;SDS011;18351;47.560;9.708;2024-02-21T08:48:39;3.47;;;1.50;;
31782;SDS011;18351;47.560;9.708;2024-02-21T08:51:05;2.63;;;1.60;;
31782;SDS011;18351;47.560;9.708;2024-02-21T08:53:31;1.67;;;1.33;;
31782;SDS011;18351;47.560;9.708;2024-02-21T08:55:56;3.13;;;1.50;;
31782;SDS011;18351;47.560;9.708;2024-02-21T08:58:22;3.72;;;1.30;;
31782;SDS011;18351;47.560;9.708;2024-02-21T09:00:49;3.95;;;1.30;;
31782;SDS011;18351;47.560;9.708;2024-02-21T09:03:16;2.53;;;1.63;;
31782;SDS011;18351;47.560;9.708;2024-02-21T09:05:42;2.60;;;1.67;;
31782;SDS011;18351;47.560;9.708;2024-02-21T09:08:08;5.68;;;2.38;;
31782;SDS011;18351;47.560;9.708;2024-02-21T09:10:34;3.53;;;2.13;;
31782;SDS011;18351;47.560;9.708;2024-02-21T09:12:59;3.30;;;1.88;;
31782;SDS011;18351;47.560;9.708;2024-02-21T09:15:25;2.28;;;1.48;;
31782;SDS011;18351;47.560;9.708;2024-02-21T09:17:51;3.22;;;1.73;;
31782;SDS011;18351;47.560;9.708;2024-02-21T09:20:17;5.30;;;1.60;;
31782;SDS011;18351;47.560;9.708;2024-02-21T09:22:43;5.15;;;1.92;;
31782;SDS011;18351;47.560;9.708;2024-02-21T09:25:08;2.28;;;1.95;;
31782;SDS011;18351;47.560;9.708;2024-02-21T09:27:36;2.95;;;1.70;;
31782;SDS011;18351;47.560;9.708;2024-02-21T09:30:02;7.65;;;2.90;;
31782;SDS011;18351;47.560;9.708;2024-02-21T09:32:29;5.72;;;2.28;;
31782;SDS011;18351;47.560;9.708;2024-02-21T09:34:55;5.95;;;2.05;;
31782;SDS011;18351;47.560;9.708;2024-02-21T09:37:20;6.70;;;2.70;;
31782;SDS011;18351;47.560;9.708;2024-02-21T09:39:46;3.15;;;2.10;;
31782;SDS011;18351;47.560;9.708;2024-02-21T09:42:12;3.40;;;2.20;;
31782;SDS011;18351;47.560;9.708;2024-02-21T09:44:42;3.67;;;2.08;;
31782;SDS011;18351;47.560;9.708;2024-02-21T09:47:12;3.70;;;1.95;;
31782;SDS011;18351;47.560;9.708;2024-02-21T09:49:49;4.90;;;2.50;;
31782;SDS011;18351;47.560;9.708;2024-02-21T09:52:16;7.70;;;2.50;;
31782;SDS011;18351;47.560;9.708;2024-02-21T09:54:44;5.13;;;2.20;;
31782;SDS011;18351;47.560;9.708;2024-02-21T09:57:10;4.20;;;2.20;;
31782;SDS011;18351;47.560;9.708;2024-02-21T09:59:36;6.95;;;2.55;;
31782;SDS011;18351;47.560;9.708;2024-02-21T10:02:02;4.68;;;2.38;;
31782;SDS011;18351;47.560;9.708;2024-02-21T10:04:29;5.50;;;2.40;;
31782;SDS011;18351;47.560;9.708;2024-02-21T10:06:55;4.32;;;2.63;;
31782;SDS011;18351;47.560;9.708;2024-02-21T10:09:27;4.15;;;2.55;;
31782;SDS011;18351;47.560;9.708;2024-02-21T10:11:54;6.72;;;2.45;;
31782;SDS011;18351;47.560;9.708;2024-02-21T10:14:20;6.05;;;2.53;;
31782;SDS011;18351;47.560;9.708;2024-02-21T10:16:55;2.63;;;2.30;;
31782;SDS011;18351;47.560;9.708;2024-02-21T10:19:25;4.20;;;2.55;;
31782;SDS011;18351;47.560;9.708;2024-02-21T10:24:30;6.80;;;2.97;;
31782;SDS011;18351;47.560;9.708;2024-02-21T10:27:04;4.20;;;2.63;;
31782;SDS011;18351;47.560;9.708;2024-02-21T10:29:34;3.55;;;2.47;;
31782;SDS011;18351;47.560;9.708;2024-02-21T10:32:13;7.22;;;3.10;;
31782;SDS011;18351;47.560;9.708;2024-02-21T10:34:39;6.38;;;2.30;;
31782;SDS011;18351;47.560;9.708;2024-02-21T10:37:07;5.80;;;2.50;;
31782;SDS011;18351;47.560;9.708;2024-02-21T10:39:39;8.48;;;2.63;;
31782;SDS011;18351;47.560;9.708;2024-02-21T10:42:06;2.88;;;2.30;;
31782;SDS011;18351;47.560;9.708;2024-02-21T10:44:34;3.05;;;2.03;;
31782;SDS011;18351;47.560;9.708;2024-02-21T10:47:04;3.15;;;2.03;;
31782;SDS011;18351;47.560;9.708;2024-02-21T10:49:41;6.43;;;2.20;;
31782;SDS011;18351;47.560;9.708;2024-02-21T10:57:28;3.03;;;2.17;;
31782;SDS011;18351;47.560;9.708;2024-02-21T10:59:55;3.95;;;2.13;;
31782;SDS011;18351;47.560;9.708;2024-02-21T11:02:23;4.15;;;2.40;;
31782;SDS011;18351;47.560;9.708;2024-02-21T11:04:49;4.72;;;2.75;;
31782;SDS011;18351;47.560;9.708;2024-02-21T11:07:17;3.83;;;2.08;;
31782;SDS011;18351;47.560;9.708;2024-02-21T11:09:50;2.88;;;1.83;;
31782;SDS011;18351;47.560;9.708;2024-02-21T11:12:19;4.40;;;2.47;;
31782;SDS011;18351;47.560;9.708;2024-02-21T11:14:46;11.00;;;2.33;;
31782;SDS011;18351;47.560;9.708;2024-02-21T11:17:15;3.33;;;2.15;;
31782;SDS011;18351;47.560;9.708;2024-02-21T11:19:46;5.60;;;2.00;;
31782;SDS011;18351;47.560;9.708;2024-02-21T11:22:18;5.47;;;2.72;;
31782;SDS011;18351;47.560;9.708;2024-02-21T11:24:47;4.88;;;3.05;;
31782;SDS011;18351;47.560;9.708;2024-02-21T11:27:14;2.60;;;1.67;;
31782;SDS011;18351;47.560;9.708;2024-02-21T11:29:47;3.47;;;2.30;;
31782;SDS011;18351;47.560;9.708;2024-02-21T11:32:16;4.65;;;2.00;;
31782;SDS011;18351;47.560;9.708;2024-02-21T11:37:30;2.97;;;2.00;;
31782;SDS011;18351;47.560;9.708;2024-02-21T11:40:01;4.97;;;2.40;;
31782;SDS011;18351;47.560;9.708;2024-02-21T11:42:28;5.40;;;2.63;;
31782;SDS011;18351;47.560;9.708;2024-02-21T11:44:55;4.15;;;2.58;;
31782;SDS011;18351;47.560;9.708;2024-02-21T11:47:25;5.00;;;2.20;;
31782;SDS011;18351;47.560;9.708;2024-02-21T11:49:53;3.95;;;2.22;;
31782;SDS011;18351;47.560;9.708;2024-02-21T11:52:22;3.00;;;1.85;;
31782;SDS011;18351;47.560;9.708;2024-02-21T11:54:50;5.50;;;2.33;;
31782;SDS011;18351;47.560;9.708;2024-02-21T11:57:16;8.30;;;2.30;;
31782;SDS011;18351;47.560;9.708;2024-02-21T11:59:44;6.63;;;2.20;;
31782;SDS011;18351;47.560;9.708;2024-02-21T12:02:12;3.95;;;2.17;;
31782;SDS011;18351;47.560;9.708;2024-02-21T12:04:38;8.63;;;4.85;;
31782;SDS011;18351;47.560;9.708;2024-02-21T12:07:04;9.98;;;3.65;;
31782;SDS011;18351;47.560;9.708;2024-02-21T12:09:30;5.50;;;2.97;;
31782;SDS011;18351;47.560;9.708;2024-02-21T12:14:24;4.35;;;2.00;;
31782;SDS011;18351;47.560;9.708;2024-02-21T12:16:51;2.00;;;1.63;;
31782;SDS011;18351;47.560;9.708;2024-02-21T12:19:16;2.78;;;1.60;;
31782;SDS011;18351;47.560;9.708;2024-02-21T12:21:42;2.20;;;1.70;;
31782;SDS011;18351;47.560;9.708;2024-02-21T12:24:12;2.95;;;1.70;;
31782;SDS011;18351;47.560;9.708;2024-02-21T12:26:38;3.72;;;2.03;;
31782;SDS011;18351;47.560;9.708;2024-02-21T12:29:05;2.35;;;1.80;;
31782;SDS011;18351;47.560;9.708;2024-02-21T12:31:30;9.77;;;2.65;;
31782;SDS011;18351;47.560;9.708;2024-02-21T12:33:56;2.95;;;2.05;;
31782;SDS011;18351;47.560;9.708;2024-02-21T12:36:22;4.05;;;2.10;;
31782;SDS011;18351;47.560;9.708;2024-02-21T12:38:47;2.30;;;1.80;;
31782;SDS011;18351;47.560;9.708;2024-02-21T12:41:14;2.70;;;1.90;;
31782;SDS011;18351;47.560;9.708;2024-02-21T12:43:40;3.05;;;1.83;;
31782;SDS011;18351;47.560;9.708;2024-02-21T12:46:05;2.85;;;1.92;;
31782;SDS011;18351;47.560;9.708;2024-02-21T12:48:32;5.80;;;1.95;;
31782;SDS011;18351;47.560;9.708;2024-02-21T12:50:58;2.00;;;1.50;;
31782;SDS011;18351;47.560;9.708;2024-02-21T12:53:24;4.18;;;1.70;;
31782;SDS011;18351;47.560;9.708;2024-02-21T12:55:50;5.30;;;2.33;;
31782;SDS011;18351;47.560;9.708;2024-02-21T12:58:16;2.20;;;1.52;;
31782;SDS011;18351;47.560;9.708;2024-02-21T13:00:42;2.53;;;1.60;;
31782;SDS011;18351;47.560;9.708;2024-02-21T13:03:08;2.05;;;1.52;;
31782;SDS011;18351;47.560;9.708;2024-02-21T13:05:37;3.58;;;1.77;;
31782;SDS011;18351;47.560;9.708;2024-02-21T13:08:03;2.75;;;2.03;;
31782;SDS011;18351;47.560;9.708;2024-02-21T13:10:32;5.00;;;1.85;;
31782;SDS011;18351;47.560;9.708;2024-02-21T13:12:59;2.53;;;1.85;;
31782;SDS011;18351;47.560;9.708;2024-02-21T13:15:28;4.32;;;2.10;;
31782;SDS011;18351;47.560;9.708;2024-02-21T13:17:54;4.18;;;2.40;;
31782;SDS011;18351;47.560;9.708;2024-02-21T13:20:23;3.53;;;2.13;;
31782;SDS011;18351;47.560;9.708;2024-02-21T13:22:50;3.47;;;2.05;;
31782;SDS011;18351;47.560;9.708;2024-02-21T13:25:16;2.80;;;2.05;;
31782;SDS011;18351;47.560;9.708;2024-02-21T13:27:44;3.13;;;1.80;;
31782;SDS011;18351;47.560;9.708;2024-02-21T13:30:10;2.05;;;1.67;;
31782;SDS011;18351;47.560;9.708;2024-02-21T13:32:36;2.85;;;1.88;;
31782;SDS011;18351;47.560;9.708;2024-02-21T13:35:01;4.45;;;2.05;;
31782;SDS011;18351;47.560;9.708;2024-02-21T13:37:28;5.50;;;2.40;;
31782;SDS011;18351;47.560;9.708;2024-02-21T13:39:53;8.88;;;2.83;;
31782;SDS011;18351;47.560;9.708;2024-02-21T13:42:19;1.98;;;1.77;;
31782;SDS011;18351;47.560;9.708;2024-02-21T13:44:45;3.95;;;2.13;;
31782;SDS011;18351;47.560;9.708;2024-02-21T13:47:12;9.50;;;2.95;;
31782;SDS011;18351;47.560;9.708;2024-02-21T13:49:39;3.63;;;2.10;;
31782;SDS011;18351;47.560;9.708;2024-02-21T13:52:06;6.25;;;2.08;;
31782;SDS011;18351;47.560;9.708;2024-02-21T13:54:31;2.58;;;1.90;;
31782;SDS011;18351;47.560;9.708;2024-02-21T13:56:57;3.33;;;2.05;;
31782;SDS011;18351;47.560;9.708;2024-02-21T13:59:22;6.25;;;2.50;;
31782;SDS011;18351;47.560;9.708;2024-02-21T14:01:48;5.70;;;2.25;;
31782;SDS011;18351;47.560;9.708;2024-02-21T14:04:13;4.55;;;2.65;;
31782;SDS011;18351;47.560;9.708;2024-02-21T14:06:40;8.05;;;2.25;;
31782;SDS011;18351;47.560;9.708;2024-02-21T14:09:08;7.13;;;2.30;;
31782;SDS011;18351;47.560;9.708;2024-02-21T14:11:34;5.75;;;2.10;;
31782;SDS011;18351;47.560;9.708;2024-02-21T14:14:00;5.03;;;2.42;;
31782;SDS011;18351;47.560;9.708;2024-02-21T14:16:25;4.65;;;2.72;;
31782;SDS011;18351;47.560;9.708;2024-02-21T14:18:51;5.38;;;3.00;;
31782;SDS011;18351;47.560;9.708;2024-02-21T14:21:16;4.25;;;2.72;;
31782;SDS011;18351;47.560;9.708;2024-02-21T14:23:42;6.82;;;2.90;;
31782;SDS011;18351;47.560;9.708;2024-02-21T14:26:08;6.15;;;3.47;;
31782;SDS011;18351;47.560;9.708;2024-02-21T14:28:34;3.50;;;2.65;;
31782;SDS011;18351;47.560;9.708;2024-02-21T14:30:59;4.72;;;2.85;;
31782;SDS011;18351;47.560;9.708;2024-02-21T14:33:28;3.28;;;2.28;;
31782;SDS011;18351;47.560;9.708;2024-02-21T14:35:55;3.60;;;2.67;;
31782;SDS011;18351;47.560;9.708;2024-02-21T14:38:21;9.05;;;2.97;;
31782;SDS011;18351;47.560;9.708;2024-02-21T14:40:47;3.03;;;2.22;;
31782;SDS011;18351;47.560;9.708;2024-02-21T14:43:12;8.48;;;3.00;;
31782;SDS011;18351;47.560;9.708;2024-02-21T14:45:38;5.82;;;2.50;;
31782;SDS011;18351;47.560;9.708;2024-02-21T14:48:05;3.10;;;2.25;;
31782;SDS011;18351;47.560;9.708;2024-02-21T14:50:30;2.47;;;2.28;;
31782;SDS011;18351;47.560;9.708;2024-02-21T14:52:56;2.78;;;2.08;;
31782;SDS011;18351;47.560;9.708;2024-02-21T14:55:22;3.65;;;2.50;;